createdAt,value
2022-07-30T00:00:35.140Z,3.38
2022-07-30T00:03:01.771Z,2.40
2022-07-30T00:05:28.485Z,2.83
2022-07-30T00:07:55.113Z,3.67
2022-07-30T00:10:23.221Z,2.35
2022-07-30T00:12:50.061Z,2.92
2022-07-30T00:15:16.664Z,3.38
2022-07-30T00:17:43.234Z,3.03
2022-07-30T00:20:15.893Z,3.72
2022-07-30T00:22:42.849Z,3.92
2022-07-30T00:25:09.689Z,3.97
2022-07-30T00:27:36.306Z,3.55
2022-07-30T00:30:04.313Z,2.50
2022-07-30T00:32:30.894Z,2.42
2022-07-30T00:34:57.473Z,2.78
2022-07-30T00:37:24.171Z,2.83
2022-07-30T00:39:50.761Z,3.03
2022-07-30T00:42:20.779Z,3.33
2022-07-30T00:44:47.345Z,3.65
2022-07-30T00:47:13.898Z,3.55
2022-07-30T00:49:44.283Z,2.70
2022-07-30T00:52:11.090Z,3.22
2022-07-30T00:54:37.673Z,3.88
2022-07-30T00:57:04.396Z,3.05
2022-07-30T00:59:31.816Z,5.35
2022-07-30T01:02:01.862Z,8.15
2022-07-30T01:04:29.117Z,3.20
2022-07-30T01:06:55.771Z,3.38
2022-07-30T01:09:22.386Z,4.10
2022-07-30T01:11:49.090Z,4.97
2022-07-30T01:14:15.878Z,3.20
2022-07-30T01:16:43.370Z,7.93
2022-07-30T01:19:34.077Z,3.72
2022-07-30T01:22:11.299Z,4.85
2022-07-30T01:24:41.225Z,5.68
2022-07-30T01:27:08.767Z,5.63
2022-07-30T01:29:36.033Z,4.30
2022-07-30T01:32:03.153Z,5.40
2022-07-30T01:34:32.086Z,4.15
2022-07-30T01:36:59.857Z,6.95
2022-07-30T01:39:27.022Z,5.65
2022-07-30T01:41:54.790Z,5.32
2022-07-30T01:44:23.819Z,6.57
2022-07-30T01:46:51.087Z,5.63
2022-07-30T01:49:19.974Z,4.90
2022-07-30T01:51:48.079Z,6.97
2022-07-30T01:54:14.998Z,7.88
2022-07-30T01:56:42.832Z,5.25
2022-07-30T01:59:10.420Z,8.52
2022-07-30T02:01:36.971Z,8.90
2022-07-30T02:04:04.642Z,12.15
2022-07-30T02:06:35.205Z,11.18
2022-07-30T02:09:07.018Z,5.75
2022-07-30T02:12:00.844Z,8.75
2022-07-30T02:14:36.891Z,6.88
2022-07-30T02:17:04.857Z,7.18
2022-07-30T02:19:34.628Z,6.75
2022-07-30T02:22:08.834Z,6.15
2022-07-30T02:24:37.495Z,4.07
2022-07-30T02:27:08.144Z,8.48
2022-07-30T02:29:36.212Z,5.38
2022-07-30T02:32:06.536Z,5.55
2022-07-30T02:34:35.092Z,9.20
2022-07-30T02:37:02.632Z,4.68
2022-07-30T02:39:31.084Z,4.30
2022-07-30T02:41:58.253Z,4.38
2022-07-30T02:44:26.427Z,4.25
2022-07-30T02:46:53.959Z,6.28
2022-07-30T02:49:21.430Z,8.73
2022-07-30T02:51:48.531Z,7.10
2022-07-30T02:54:17.466Z,7.55
2022-07-30T02:56:44.715Z,7.35
2022-07-30T02:59:11.782Z,5.15
2022-07-30T03:01:38.609Z,7.82
2022-07-30T03:04:05.891Z,9.25
2022-07-30T03:06:32.998Z,7.90
2022-07-30T03:09:00.059Z,5.32
2022-07-30T03:11:27.238Z,9.73
2022-07-30T03:13:53.957Z,6.30
2022-07-30T03:16:22.734Z,7.60
2022-07-30T03:18:49.921Z,8.38
2022-07-30T03:21:16.995Z,6.60
2022-07-30T03:23:44.353Z,5.22
2022-07-30T03:26:11.763Z,5.82
2022-07-30T03:28:39.770Z,7.97
2022-07-30T03:31:07.801Z,7.00
2022-07-30T03:33:38.863Z,8.35
2022-07-30T03:36:06.404Z,8.75
2022-07-30T03:38:33.080Z,6.43
2022-07-30T03:41:00.192Z,7.53
2022-07-30T03:43:32.825Z,7.05
2022-07-30T03:46:02.363Z,8.55
2022-07-30T03:48:29.599Z,6.78
2022-07-30T03:50:56.436Z,9.55
2022-07-30T03:53:27.725Z,8.95
2022-07-30T03:55:54.791Z,8.30
2022-07-30T03:58:21.367Z,9.02
2022-07-30T04:00:49.831Z,10.93
2022-07-30T04:03:30.833Z,8.52
2022-07-30T04:05:57.829Z,7.55
2022-07-30T04:08:24.563Z,7.40
2022-07-30T04:10:52.498Z,15.27
2022-07-30T04:13:19.133Z,8.32
2022-07-30T04:16:37.947Z,7.10
2022-07-30T04:18:47.835Z,7.78
2022-07-30T04:21:17.664Z,9.73
2022-07-30T04:24:04.636Z,8.65
2022-07-30T04:26:34.408Z,8.15
2022-07-30T04:29:04.803Z,6.82
2022-07-30T04:31:40.037Z,7.43
2022-07-30T04:34:07.470Z,7.95
2022-07-30T04:36:34.259Z,6.78
2022-07-30T04:39:01.294Z,8.13
2022-07-30T04:41:27.982Z,8.82
2022-07-30T04:43:54.637Z,8.35
2022-07-30T04:46:23.231Z,7.53
2022-07-30T04:48:51.787Z,7.07
2022-07-30T04:51:23.597Z,7.35
2022-07-30T04:53:51.272Z,10.55
2022-07-30T04:56:18.642Z,9.50
2022-07-30T04:58:45.938Z,9.85
2022-07-30T05:01:17.570Z,9.20
2022-07-30T05:03:45.105Z,8.45
2022-07-30T05:06:12.482Z,12.25
2022-07-30T05:08:39.837Z,8.88
2022-07-30T05:11:06.418Z,14.02
2022-07-30T05:13:34.492Z,10.68
2022-07-30T05:16:05.637Z,14.88
2022-07-30T05:18:32.257Z,9.90
2022-07-30T05:20:58.798Z,10.18
2022-07-30T05:23:25.498Z,12.77
2022-07-30T05:25:52.038Z,16.98
2022-07-30T05:28:18.592Z,18.75
2022-07-30T05:30:45.217Z,19.67
2022-07-30T05:33:15.752Z,16.88
2022-07-30T05:35:42.743Z,16.20
2022-07-30T05:38:09.384Z,11.63
2022-07-30T05:40:35.954Z,12.75
2022-07-30T05:43:02.539Z,10.95
2022-07-30T05:45:29.177Z,9.25
2022-07-30T05:47:55.760Z,10.40
2022-07-30T05:50:22.462Z,10.40
2022-07-30T05:52:49.086Z,9.38
2022-07-30T05:55:15.689Z,10.80
2022-07-30T05:57:42.531Z,12.15
2022-07-30T06:00:11.140Z,9.80
2022-07-30T06:02:39.629Z,10.05
2022-07-30T06:05:06.900Z,10.18
2022-07-30T06:07:33.556Z,11.90
2022-07-30T06:10:00.529Z,9.90
2022-07-30T06:12:30.702Z,10.73
2022-07-30T06:14:58.198Z,10.68
2022-07-30T06:17:24.817Z,9.85
2022-07-30T06:19:51.661Z,10.02
2022-07-30T06:22:21.712Z,10.38
2022-07-30T06:24:50.754Z,9.57
2022-07-30T06:27:17.352Z,8.65
2022-07-30T06:29:44.017Z,8.32
2022-07-30T06:32:10.706Z,9.32
2022-07-30T06:34:37.235Z,8.90
2022-07-30T06:37:04.060Z,10.00
2022-07-30T06:39:57.052Z,8.95
2022-07-30T06:42:17.613Z,14.88
2022-07-30T06:44:44.350Z,12.32
2022-07-30T06:47:11.459Z,8.93
2022-07-30T06:49:38.767Z,8.40
2022-07-30T06:52:05.978Z,7.55
2022-07-30T06:54:32.931Z,7.57
2022-07-30T06:56:59.726Z,7.85
2022-07-30T06:59:27.780Z,8.57
2022-07-30T07:01:54.505Z,8.85
2022-07-30T07:04:21.279Z,9.60
2022-07-30T07:06:47.941Z,8.05
2022-07-30T07:09:14.508Z,7.53
2022-07-30T07:11:41.141Z,7.18
2022-07-30T07:14:07.830Z,10.40
2022-07-30T07:16:34.542Z,7.75
2022-07-30T07:19:01.128Z,7.13
2022-07-30T07:21:27.750Z,7.53
2022-07-30T07:23:54.408Z,7.90
2022-07-30T07:26:20.992Z,6.78
2022-07-30T07:28:47.605Z,7.22
2022-07-30T07:32:07.154Z,7.43
2022-07-30T07:34:00.839Z,8.30
2022-07-30T07:36:27.471Z,5.82
2022-07-30T07:38:54.059Z,6.78
2022-07-30T07:41:20.918Z,6.78
2022-07-30T07:43:47.699Z,6.00
2022-07-30T07:46:16.772Z,9.27
2022-07-30T07:49:00.124Z,9.15
2022-07-30T07:51:34.764Z,5.65
2022-07-30T07:54:21.758Z,6.40
2022-07-30T07:56:49.121Z,8.00
2022-07-30T07:59:15.773Z,5.82
2022-07-30T08:01:43.991Z,8.48
2022-07-30T08:04:10.998Z,5.15
2022-07-30T08:06:37.670Z,5.05
2022-07-30T08:09:08.137Z,5.13
2022-07-30T08:11:35.014Z,4.53
2022-07-30T08:14:01.598Z,7.25
2022-07-30T08:16:29.374Z,4.22
2022-07-30T08:18:56.125Z,4.60
2022-07-30T08:21:22.747Z,4.95
2022-07-30T08:23:49.515Z,9.35
2022-07-30T08:26:16.102Z,4.93
2022-07-30T08:28:43.357Z,6.53
2022-07-30T08:31:09.999Z,6.88
2022-07-30T08:33:36.550Z,4.80
2022-07-30T08:36:09.163Z,4.95
2022-07-30T08:38:38.300Z,6.47
2022-07-30T08:41:04.977Z,5.57
2022-07-30T08:43:31.753Z,5.70
2022-07-30T08:45:59.104Z,6.03
2022-07-30T08:48:26.273Z,4.85
2022-07-30T08:50:53.169Z,7.32
2022-07-30T08:53:23.399Z,9.60
2022-07-30T08:55:49.954Z,7.75
2022-07-30T08:58:29.178Z,6.22
2022-07-30T09:03:44.511Z,5.72
2022-07-30T09:06:11.588Z,7.68
2022-07-30T09:08:38.139Z,7.35
2022-07-30T09:11:04.700Z,5.10
2022-07-30T09:13:37.919Z,5.63
2022-07-30T09:16:06.193Z,5.83
2022-07-30T09:18:37.967Z,5.22
2022-07-30T09:21:18.076Z,5.30
2022-07-30T09:24:06.231Z,5.75
2022-07-30T09:26:33.622Z,5.28
2022-07-30T09:29:20.349Z,4.97
2022-07-30T09:31:58.383Z,5.35
2022-07-30T09:34:33.541Z,5.93
2022-07-30T09:37:02.429Z,14.80
2022-07-30T09:39:40.387Z,5.20
2022-07-30T09:42:25.879Z,4.35
2022-07-30T09:44:53.272Z,7.53
2022-07-30T09:47:33.760Z,8.43
2022-07-30T09:50:09.684Z,8.63
2022-07-30T09:52:43.995Z,7.53
2022-07-30T09:55:16.275Z,10.23
2022-07-30T09:57:58.825Z,9.80
2022-07-30T10:00:27.424Z,10.70
2022-07-30T10:02:54.472Z,9.40
2022-07-30T10:05:21.630Z,5.88
2022-07-30T10:07:52.445Z,4.78
2022-07-30T10:10:21.640Z,5.55
2022-07-30T10:12:54.438Z,4.80
2022-07-30T10:15:21.623Z,7.13
2022-07-30T10:17:49.921Z,4.57
2022-07-30T10:20:18.012Z,4.28
2022-07-30T10:22:45.461Z,4.05
2022-07-30T10:25:23.119Z,5.40
2022-07-30T10:27:58.105Z,3.67
2022-07-30T10:30:27.899Z,5.07
2022-07-30T10:32:57.087Z,4.65
2022-07-30T10:35:34.625Z,5.38
2022-07-30T10:38:08.541Z,4.05
2022-07-30T10:40:39.428Z,4.30
2022-07-30T10:43:31.818Z,4.65
2022-07-30T10:46:36.197Z,3.35
2022-07-30T10:49:19.068Z,3.53
2022-07-30T10:51:55.270Z,5.32
2022-07-30T10:54:39.627Z,5.55
2022-07-30T10:57:22.661Z,3.33
2022-07-30T11:00:15.647Z,5.20
2022-07-30T11:03:20.216Z,4.28
2022-07-30T11:05:50.114Z,3.73
2022-07-30T11:08:42.470Z,4.25
2022-07-30T11:12:01.497Z,4.47
2022-07-30T11:14:48.369Z,4.15
2022-07-30T11:17:17.085Z,4.95
2022-07-30T11:20:12.186Z,4.10
2022-07-30T11:22:44.917Z,5.25
2022-07-30T11:25:54.671Z,3.70
2022-07-30T11:28:36.016Z,4.82
2022-07-30T11:31:10.130Z,5.57
2022-07-30T11:33:37.164Z,6.60
2022-07-30T11:36:10.716Z,7.38
2022-07-30T11:39:06.905Z,6.43
2022-07-30T11:41:34.103Z,5.32
2022-07-30T11:44:26.773Z,7.38
2022-07-30T11:46:53.534Z,4.32
2022-07-30T11:49:20.671Z,3.67
2022-07-30T11:51:48.582Z,7.53
2022-07-30T11:54:15.535Z,3.35
2022-07-30T11:56:49.738Z,3.33
2022-07-30T11:59:16.569Z,4.45
2022-07-30T12:05:38.983Z,2.97
2022-07-30T12:08:09.301Z,4.93
2022-07-30T12:11:02.232Z,2.92
2022-07-30T12:13:45.462Z,9.73
2022-07-30T12:16:18.580Z,4.18
2022-07-30T12:18:47.258Z,6.50
2022-07-30T12:21:18.470Z,4.60
2022-07-30T12:24:01.571Z,3.80
2022-07-30T12:26:30.390Z,6.28
2022-07-30T12:28:59.624Z,8.10
2022-07-30T12:31:28.973Z,22.42
2022-07-30T12:33:59.846Z,11.40
2022-07-30T12:36:33.298Z,4.63
2022-07-30T12:39:05.066Z,15.00
2022-07-30T12:41:49.419Z,27.52
2022-07-30T12:47:28.164Z,6.72
2022-07-30T12:50:00.810Z,4.07
2022-07-30T12:52:33.767Z,5.77
2022-07-30T12:55:12.479Z,5.53
2022-07-30T12:58:11.681Z,4.10
2022-07-30T13:00:52.215Z,4.55
2022-07-30T13:03:30.851Z,4.45
2022-07-30T13:05:57.716Z,5.30
2022-07-30T13:08:56.471Z,3.70
2022-07-30T13:11:33.560Z,4.45
2022-07-30T13:14:00.333Z,5.50
2022-07-30T13:16:33.948Z,5.18
2022-07-30T13:19:00.835Z,3.60
2022-07-30T13:21:27.388Z,4.63
2022-07-30T13:23:53.984Z,4.18
2022-07-30T13:26:20.601Z,4.82
2022-07-30T13:28:47.264Z,5.43
2022-07-30T13:31:14.098Z,10.93
2022-07-30T13:33:40.805Z,11.45
2022-07-30T13:36:07.843Z,7.25
2022-07-30T13:38:34.838Z,7.25
2022-07-30T13:41:03.021Z,3.08
2022-07-30T13:43:30.001Z,5.30
2022-07-30T13:46:01.996Z,7.97
2022-07-30T13:48:28.650Z,3.95
2022-07-30T13:50:55.306Z,4.68
2022-07-30T13:53:21.966Z,6.22
2022-07-30T13:55:48.654Z,4.07
2022-07-30T13:58:15.323Z,9.18
2022-07-30T14:00:45.130Z,3.53
2022-07-30T14:03:12.083Z,4.57
2022-07-30T14:05:42.168Z,4.40
2022-07-30T14:08:10.353Z,5.07
2022-07-30T14:10:40.043Z,5.80
2022-07-30T14:13:07.845Z,5.63
2022-07-30T14:15:34.549Z,4.05
2022-07-30T14:18:01.275Z,6.32
2022-07-30T14:20:29.029Z,6.22
2022-07-30T14:22:56.009Z,6.38
2022-07-30T14:25:23.166Z,3.30
2022-07-30T14:27:49.910Z,6.28
2022-07-30T14:30:16.509Z,8.32
2022-07-30T14:32:43.119Z,5.05
2022-07-30T14:35:10.583Z,6.30
2022-07-30T14:37:40.740Z,8.93
2022-07-30T14:40:12.103Z,3.63
2022-07-30T14:42:40.264Z,4.95
2022-07-30T14:45:10.912Z,3.53
2022-07-30T14:47:40.479Z,3.90
2022-07-30T14:50:13.173Z,4.72
2022-07-30T14:52:41.270Z,4.57
2022-07-30T14:55:09.251Z,6.20
2022-07-30T14:57:40.362Z,4.32
2022-07-30T15:00:11.155Z,4.20
2022-07-30T15:02:39.186Z,4.35
2022-07-30T15:05:07.092Z,4.43
2022-07-30T15:07:34.807Z,3.33
2022-07-30T15:10:02.679Z,4.40
2022-07-30T15:12:29.329Z,2.78
2022-07-30T15:14:56.036Z,3.88
2022-07-30T15:17:22.679Z,2.72
2022-07-30T15:19:50.828Z,2.97
2022-07-30T15:22:21.469Z,2.60
2022-07-30T15:24:48.959Z,3.75
2022-07-30T15:27:31.853Z,2.60
2022-07-30T15:30:01.114Z,2.85
2022-07-30T15:32:27.987Z,3.20
2022-07-30T15:34:55.599Z,2.67
2022-07-30T15:37:22.142Z,2.50
2022-07-30T15:39:49.089Z,2.65
2022-07-30T15:42:18.463Z,2.90
2022-07-30T15:44:48.887Z,3.67
2022-07-30T15:47:15.835Z,5.03
2022-07-30T15:49:42.508Z,3.25
2022-07-30T15:52:09.108Z,2.90
2022-07-30T15:54:35.881Z,2.65
2022-07-30T15:57:02.708Z,3.00
2022-07-30T15:59:30.182Z,2.85
2022-07-30T16:01:56.992Z,2.90
2022-07-30T16:04:31.877Z,4.63
2022-07-30T16:07:03.526Z,4.85
2022-07-30T16:09:30.600Z,6.28
2022-07-30T16:11:58.329Z,2.90
2022-07-30T16:14:25.174Z,3.60
2022-07-30T16:16:52.818Z,3.05
2022-07-30T16:19:20.223Z,2.83
2022-07-30T16:21:46.885Z,2.70
2022-07-30T16:24:13.494Z,2.65
2022-07-30T16:26:40.061Z,5.38
2022-07-30T16:29:09.596Z,3.25
2022-07-30T16:31:40.033Z,4.70
2022-07-30T16:34:06.824Z,3.08
2022-07-30T16:36:33.759Z,3.05
2022-07-30T16:39:01.389Z,4.07
2022-07-30T16:41:28.086Z,2.95
2022-07-30T16:43:54.708Z,3.83
2022-07-30T16:46:21.347Z,4.20
2022-07-30T16:48:50.340Z,2.90
2022-07-30T16:51:17.385Z,3.30
2022-07-30T16:53:43.982Z,3.20
2022-07-30T16:56:10.585Z,3.10
2022-07-30T16:58:37.205Z,3.47
2022-07-30T17:01:04.213Z,3.10
2022-07-30T17:03:30.799Z,2.92
2022-07-30T17:05:57.479Z,2.17
2022-07-30T17:08:24.552Z,3.25
2022-07-30T17:10:52.426Z,3.78
2022-07-30T17:13:19.629Z,2.85
2022-07-30T17:15:46.874Z,3.65
2022-07-30T17:18:14.147Z,3.58
2022-07-30T17:20:40.696Z,2.70
2022-07-30T17:23:07.964Z,3.88
2022-07-30T17:25:34.815Z,3.45
2022-07-30T17:28:02.023Z,2.60
2022-07-30T17:30:29.566Z,2.67
2022-07-30T17:32:56.277Z,2.70
2022-07-30T17:35:23.160Z,3.00
2022-07-30T17:37:49.866Z,5.65
2022-07-30T17:40:28.989Z,2.70
2022-07-30T17:43:04.998Z,3.00
2022-07-30T17:48:02.166Z,3.72
2022-07-30T17:50:29.884Z,2.75
2022-07-30T17:52:56.709Z,2.85
2022-07-30T17:55:23.468Z,2.78
2022-07-30T17:57:50.047Z,2.85
2022-07-30T18:00:17.119Z,2.55
2022-07-30T18:02:47.149Z,2.50
2022-07-30T18:05:16.402Z,2.92
2022-07-30T18:07:43.997Z,4.93
2022-07-30T18:10:11.733Z,4.80
2022-07-30T18:12:38.817Z,3.05
2022-07-30T18:15:15.558Z,3.47
2022-07-30T18:17:42.058Z,3.88
2022-07-30T18:20:09.495Z,2.42
2022-07-30T18:22:36.126Z,3.08
2022-07-30T18:25:02.952Z,2.67
2022-07-30T18:27:37.677Z,3.70
2022-07-30T18:30:04.614Z,3.90
2022-07-30T18:32:31.152Z,3.75
2022-07-30T18:34:57.721Z,4.07
2022-07-30T18:37:24.274Z,3.95
2022-07-30T18:39:54.319Z,3.55
2022-07-30T18:42:20.950Z,3.97
2022-07-30T18:44:50.438Z,4.18
2022-07-30T18:47:18.437Z,4.00
2022-07-30T18:49:48.664Z,4.03
2022-07-30T18:52:15.465Z,3.30
2022-07-30T18:54:42.369Z,3.35
2022-07-30T18:57:14.202Z,2.88
2022-07-30T18:59:41.526Z,5.20
2022-07-30T19:02:08.589Z,2.80
2022-07-30T19:04:36.411Z,3.00
2022-07-30T19:07:03.192Z,4.15
2022-07-30T19:09:29.845Z,3.55
2022-07-30T19:11:56.427Z,5.57
2022-07-30T19:14:23.240Z,3.28
2022-07-30T19:16:50.155Z,4.20
2022-07-30T19:19:25.598Z,2.65
2022-07-30T19:21:52.173Z,3.75
2022-07-30T19:24:18.747Z,3.22
2022-07-30T19:26:45.364Z,5.88
2022-07-30T19:29:12.460Z,4.20
2022-07-30T19:31:41.776Z,3.42
2022-07-30T19:34:10.847Z,3.75
2022-07-30T19:36:37.920Z,3.35
2022-07-30T19:39:07.025Z,3.42
2022-07-30T19:41:40.937Z,3.72
2022-07-30T19:44:12.197Z,3.90
2022-07-30T19:46:39.280Z,3.40
2022-07-30T19:49:08.314Z,3.42
2022-07-30T19:52:07.398Z,3.80
2022-07-30T19:54:21.828Z,3.38
2022-07-30T19:56:48.753Z,4.80
2022-07-30T19:59:15.818Z,5.00
2022-07-30T20:01:43.411Z,5.22
2022-07-30T20:04:11.426Z,4.85
2022-07-30T20:06:46.228Z,4.38
2022-07-30T20:09:14.578Z,4.45
2022-07-30T20:11:45.966Z,4.70
2022-07-30T20:14:13.370Z,6.85
2022-07-30T20:16:42.947Z,4.47
2022-07-30T20:19:12.035Z,8.43
2022-07-30T20:21:56.790Z,3.28
2022-07-30T20:24:24.123Z,5.00
2022-07-30T20:26:52.274Z,3.95
2022-07-30T20:29:20.754Z,4.93
2022-07-30T20:31:49.758Z,8.85
2022-07-30T20:34:18.189Z,8.05
2022-07-30T20:36:45.422Z,4.40
2022-07-30T20:39:18.499Z,4.80
2022-07-30T20:41:46.447Z,3.75
2022-07-30T20:44:23.241Z,5.40
2022-07-30T20:46:50.623Z,4.07
2022-07-30T20:49:23.683Z,6.03
2022-07-30T20:51:55.766Z,3.60
2022-07-30T20:54:22.415Z,4.18
2022-07-30T20:56:50.893Z,4.22
2022-07-30T20:59:17.764Z,6.45
2022-07-30T21:01:52.544Z,3.92
2022-07-30T21:04:23.800Z,4.28
2022-07-30T21:06:52.670Z,5.32
2022-07-30T21:09:23.702Z,4.40
2022-07-30T21:11:53.567Z,4.75
2022-07-30T21:14:20.462Z,4.03
2022-07-30T21:16:47.427Z,4.43
2022-07-30T21:19:16.698Z,6.22
2022-07-30T21:21:48.235Z,6.45
2022-07-30T21:24:18.940Z,4.30
2022-07-30T21:26:48.893Z,5.15
2022-07-30T21:29:16.517Z,4.50
2022-07-30T21:32:01.906Z,6.35
2022-07-30T21:34:35.967Z,6.07
2022-07-30T21:37:08.895Z,4.35
2022-07-30T21:39:39.854Z,4.60
2022-07-30T21:42:07.993Z,5.90
2022-07-30T21:44:34.814Z,5.03
2022-07-30T21:47:01.492Z,4.47
2022-07-30T21:49:28.254Z,4.70
2022-07-30T21:51:58.457Z,5.28
2022-07-30T21:54:29.199Z,6.20
2022-07-30T21:56:58.341Z,5.50
2022-07-30T21:59:25.440Z,5.78
2022-07-30T22:01:55.372Z,5.30
2022-07-30T22:04:22.250Z,5.10
2022-07-30T22:06:48.858Z,8.10
2022-07-30T22:09:19.792Z,6.20
2022-07-30T22:12:00.635Z,5.57
2022-07-30T22:14:27.527Z,5.50
2022-07-30T22:16:54.573Z,8.50
2022-07-30T22:19:21.988Z,7.47
2022-07-30T22:22:03.570Z,7.72
2022-07-30T22:24:36.299Z,7.43
2022-07-30T22:27:13.251Z,6.03
2022-07-30T22:32:28.504Z,7.60
2022-07-30T22:34:55.120Z,6.15
2022-07-30T22:37:25.711Z,7.47
2022-07-30T22:40:01.738Z,6.20
2022-07-30T22:42:28.702Z,7.40
2022-07-30T22:44:55.495Z,6.32
2022-07-30T22:50:09.932Z,6.97
2022-07-30T22:55:28.115Z,7.90
2022-07-30T22:57:56.183Z,5.95
2022-07-30T23:00:28.262Z,7.90
2022-07-30T23:02:56.135Z,5.93
2022-07-30T23:05:22.903Z,7.88
2022-07-30T23:07:50.657Z,7.22
2022-07-30T23:10:18.602Z,7.25
2022-07-30T23:12:30.687Z,6.45
2022-07-30T23:12:32.790Z,8.13
2022-07-30T23:12:33.952Z,8.57
2022-07-30T23:12:51.593Z,8.52
2022-07-30T23:15:20.072Z,6.13
2022-07-30T23:17:47.847Z,5.35
2022-07-30T23:20:20.557Z,5.75
2022-07-30T23:22:48.458Z,5.88
2022-07-30T23:25:15.494Z,7.07
2022-07-30T23:27:42.606Z,5.90
2022-07-30T23:30:10.967Z,5.53
2022-07-30T23:32:38.565Z,7.75
2022-07-30T23:35:06.585Z,8.50
2022-07-30T23:37:38.098Z,6.95
2022-07-30T23:40:17.528Z,5.97
2022-07-30T23:42:44.583Z,11.45
2022-07-30T23:45:11.423Z,6.55
2022-07-30T23:47:51.212Z,6.80
2022-07-30T23:50:25.399Z,5.50
2022-07-30T23:52:52.597Z,5.75
2022-07-30T23:55:19.280Z,6.03
2022-07-30T23:57:45.836Z,5.82
